Time;durP1;ratioP1;P1;durP2;ratioP2;P2;SDS_P1;SDS_P2;PMS_P1;PMS_P2;Temp;Humidity;BMP_temperature;BMP_pressure;BME280_temperature;BME280_humidity;BME280_pressure;Samples;Min_cycle;Max_cycle;Signal;HPM_P1;HPM_P2
2022/08/14 00:00:58;;;;;;;;;;;;;;;-144.99;51.38;52016.00;5065753;28;19928;-65
2022/08/14 00:03:25;;;;;;;;;;;;;;;-144.99;51.52;51997.66;5067099;28;19931;-66
2022/08/14 00:05:53;;;;;;;;;;;;;;;-144.99;51.53;51983.41;5067307;28;19931;-66
2022/08/14 00:08:20;;;;;;;;;;;;;;;-144.99;51.68;51969.13;5063946;28;20055;-67
2022/08/14 00:10:46;;;;;;;;;;;;;;;-144.99;51.62;52056.78;5060592;28;19962;-66
2022/08/14 00:13:14;;;;;;;;;;;;;;;-144.99;51.61;51999.69;5065342;28;19931;-67
2022/08/14 00:15:42;;;;;;;;;;;;;;;-144.99;51.61;51995.63;5068852;28;19924;-66
2022/08/14 00:18:10;;;;;;;;;;;;;;;-144.99;51.77;52036.38;5068897;28;20353;-67
2022/08/14 00:20:38;;;;;;;;;;;;;;;-144.99;51.67;52032.31;5069567;28;20023;-66
2022/08/14 00:23:07;;;;;;;;;;;;;;;-144.99;51.74;52036.38;5065605;28;20016;-66
2022/08/14 00:25:33;;;;;;;;;;;;;;;-144.99;51.91;51995.63;5068533;28;19934;-70
2022/08/14 00:28:00;;;;;;;;;;;;;;;-144.99;51.96;51987.47;5068810;28;19942;-70
2022/08/14 00:30:26;;;;;;;;;;;;;;;-144.99;51.94;52028.22;5064883;28;19928;-69
2022/08/14 00:32:53;;;;;;;;;;;;;;;-144.99;52.26;52020.09;5064317;28;20043;-67
2022/08/14 00:35:19;;;;;;;;;;;;;;;-144.99;52.20;51991.56;5062388;28;19924;-68
2022/08/14 00:37:46;;;;;;;;;;;;;;;-144.99;52.46;52024.16;5066941;28;19928;-68
2022/08/14 00:40:15;;;;;;;;;;;;;;;-144.99;52.62;52024.16;5077175;28;19935;-68
2022/08/14 00:42:42;;;;;;;;;;;;;;;-144.99;52.75;51995.63;5080165;28;19924;-67
2022/08/14 00:45:10;;;;;;;;;;;;;;;-144.99;52.86;52016.00;5088554;28;20304;-68
2022/08/14 00:47:37;;;;;;;;;;;;;;;-144.99;52.84;52007.84;5072648;28;19931;-68
2022/08/14 00:50:06;;;;;;;;;;;;;;;-144.99;52.94;52032.31;5070065;28;20370;-68
2022/08/14 00:52:33;;;;;;;;;;;;;;;-144.99;53.13;52060.84;5066271;28;20011;-64
2022/08/14 00:54:59;;;;;;;;;;;;;;;-144.99;53.31;52026.19;5071297;28;19928;-63
2022/08/14 00:57:28;;;;;;;;;;;;;;;-144.99;53.28;52036.38;5073789;28;19935;-63
2022/08/14 00:59:55;;;;;;;;;;;;;;;-144.99;53.35;52040.47;5070650;28;19971;-63
2022/08/14 01:02:23;;;;;;;;;;;;;;;-144.99;53.34;52034.34;5074720;28;19932;-63
2022/08/14 01:04:51;;;;;;;;;;;;;;;-144.99;53.69;52024.16;5066203;28;20438;-69
2022/08/14 01:07:19;;;;;;;;;;;;;;;-144.99;53.72;52044.53;5062041;28;19935;-68
2022/08/14 01:09:47;;;;;;;;;;;;;;;-144.99;53.73;52036.38;5069476;28;20176;-68
2022/08/14 01:12:15;;;;;;;;;;;;;;;-144.99;53.91;52069.00;5071245;28;19924;-67
2022/08/14 01:14:42;;;;;;;;;;;;;;;-144.99;53.98;52052.69;5074882;28;19954;-68
2022/08/14 01:17:09;;;;;;;;;;;;;;;-144.99;53.85;52028.22;5072891;28;19928;-68
2022/08/14 01:22:20;;;;;;;;;;;;;;;-144.99;54.05;52024.16;5069579;28;19950;-67
2022/08/14 01:24:47;;;;;;;;;;;;;;;-144.99;54.12;52034.34;5065531;28;19925;-68
2022/08/14 01:27:14;;;;;;;;;;;;;;;-144.99;54.21;52036.38;5059620;28;19931;-68
2022/08/14 01:29:41;;;;;;;;;;;;;;;-144.99;54.34;52001.75;5066366;28;19951;-66
2022/08/14 01:32:08;;;;;;;;;;;;;;;-144.99;54.41;52016.00;5071714;28;19924;-65
2022/08/14 01:34:35;;;;;;;;;;;;;;;-144.99;54.64;52028.22;5067184;28;19943;-66
2022/08/14 01:37:03;;;;;;;;;;;;;;;-144.99;54.95;52048.63;5071121;28;20015;-66
2022/08/14 01:39:31;;;;;;;;;;;;;;;-144.99;55.21;52003.78;5069657;28;20301;-66
2022/08/14 01:41:59;;;;;;;;;;;;;;;-144.99;55.35;52036.38;5061441;28;19931;-67
2022/08/14 01:44:28;;;;;;;;;;;;;;;-144.99;55.45;52044.53;5066094;28;19932;-69
2022/08/14 01:46:57;;;;;;;;;;;;;;;-144.99;55.60;52028.22;5075455;28;19932;-69
2022/08/14 01:49:24;;;;;;;;;;;;;;;-144.99;55.78;52050.66;5071773;28;19924;-69
2022/08/14 01:51:53;;;;;;;;;;;;;;;-144.99;55.88;52036.38;5070992;28;20019;-69
2022/08/14 01:54:20;;;;;;;;;;;;;;;-144.99;56.22;52016.00;5071862;28;19928;-69
2022/08/14 01:56:51;;;;;;;;;;;;;;;-144.99;56.23;52026.19;5067970;28;19936;-69
2022/08/14 01:59:21;;;;;;;;;;;;;;;-144.99;56.37;52034.34;5065638;28;19971;-71
2022/08/14 02:01:50;;;;;;;;;;;;;;;-144.99;56.53;52007.84;5062309;28;20011;-70
2022/08/14 02:04:19;;;;;;;;;;;;;;;-144.99;56.51;52009.91;5066460;28;19930;-68
2022/08/14 02:06:46;;;;;;;;;;;;;;;-144.99;56.55;52048.63;5066000;28;19924;-70
2022/08/14 02:09:12;;;;;;;;;;;;;;;-144.99;56.79;52064.91;5067752;28;19983;-70
2022/08/14 02:11:39;;;;;;;;;;;;;;;-144.99;57.09;52081.22;5063295;28;19946;-70
2022/08/14 02:14:09;;;;;;;;;;;;;;;-144.99;57.33;52044.53;5069003;28;19974;-70
2022/08/14 02:16:37;;;;;;;;;;;;;;;-144.99;57.55;52040.47;5068659;28;20357;-71
2022/08/14 02:19:05;;;;;;;;;;;;;;;-144.99;57.58;52028.22;5063647;28;20023;-71
2022/08/14 02:21:32;;;;;;;;;;;;;;;-144.99;57.64;52032.31;5057167;28;19925;-70
2022/08/14 02:24:00;;;;;;;;;;;;;;;-144.99;57.84;52032.31;5063312;28;19929;-70
2022/08/14 02:26:27;;;;;;;;;;;;;;;-144.99;58.03;52056.78;5061386;28;19928;-69
2022/08/14 02:28:58;;;;;;;;;;;;;;;-144.99;57.88;52048.63;5065395;28;19983;-71
2022/08/14 02:31:28;;;;;;;;;;;;;;;-144.99;58.15;52048.63;5063342;28;20352;-70
2022/08/14 02:33:55;;;;;;;;;;;;;;;-144.99;58.11;52044.53;5064752;28;19925;-71
2022/08/14 02:36:21;;;;;;;;;;;;;;;-144.99;58.01;52066.97;5065335;28;19932;-70
2022/08/14 02:38:48;;;;;;;;;;;;;;;-144.99;58.16;52032.31;5063836;28;19980;-70
2022/08/14 02:41:16;;;;;;;;;;;;;;;-144.99;58.40;52028.22;5063673;28;19935;-69
2022/08/14 02:43:44;;;;;;;;;;;;;;;-144.99;58.68;52048.63;5067133;28;20020;-67
2022/08/14 02:46:11;;;;;;;;;;;;;;;-144.99;58.67;52007.84;5057362;28;20294;-66
2022/08/14 02:48:40;;;;;;;;;;;;;;;-144.99;58.79;52073.06;5065521;28;20386;-66
2022/08/14 02:51:09;;;;;;;;;;;;;;;-144.99;58.65;52036.38;5063196;28;19928;-67
2022/08/14 02:53:38;;;;;;;;;;;;;;;-144.99;58.58;52030.28;5064502;28;20374;-67
2022/08/14 02:56:05;;;;;;;;;;;;;;;-144.99;58.52;52073.06;5058583;28;19924;-66
2022/08/14 02:58:33;;;;;;;;;;;;;;;-144.99;58.93;52060.84;5059591;28;20443;-67
2022/08/14 03:01:00;;;;;;;;;;;;;;;-144.99;59.04;52038.44;5063181;28;19924;-66
2022/08/14 03:03:26;;;;;;;;;;;;;;;-144.99;59.47;52060.84;5065142;28;20010;-67
2022/08/14 03:05:54;;;;;;;;;;;;;;;-144.99;59.66;52044.53;5059324;28;20370;-67
2022/08/14 03:08:21;;;;;;;;;;;;;;;-144.99;59.82;52069.00;5060541;28;19932;-67
2022/08/14 03:10:48;;;;;;;;;;;;;;;-144.99;59.82;52044.53;5057406;28;20313;-66
2022/08/14 03:13:14;;;;;;;;;;;;;;;-144.99;59.82;52032.31;5060603;28;19931;-67
2022/08/14 03:15:43;;;;;;;;;;;;;;;-144.99;59.99;52020.09;5065492;28;20450;-66
2022/08/14 03:18:10;;;;;;;;;;;;;;;-144.99;60.12;52028.22;5064148;28;20390;-66
2022/08/14 03:20:36;;;;;;;;;;;;;;;-144.99;60.29;52032.31;5062968;28;19925;-66
2022/08/14 03:23:04;;;;;;;;;;;;;;;-144.99;60.24;52034.34;5067632;28;19925;-66
2022/08/14 03:25:32;;;;;;;;;;;;;;;-144.99;60.26;52048.63;5064915;28;20022;-66
2022/08/14 03:28:02;;;;;;;;;;;;;;;-144.99;60.26;52069.00;5064862;28;20037;-70
2022/08/14 03:30:29;;;;;;;;;;;;;;;-144.99;60.13;52003.78;5063730;28;20431;-71
2022/08/14 03:32:56;;;;;;;;;;;;;;;-144.99;60.26;52056.78;5067908;28;20019;-70
2022/08/14 03:35:22;;;;;;;;;;;;;;;-144.99;60.20;52028.22;5066580;28;19924;-70
2022/08/14 03:37:51;;;;;;;;;;;;;;;-144.99;60.31;52030.28;5067612;28;19931;-71
2022/08/14 03:40:19;;;;;;;;;;;;;;;-144.99;60.40;52036.38;5065499;28;20315;-71
2022/08/14 03:42:45;;;;;;;;;;;;;;;-144.99;60.47;52024.16;5066289;28;20561;-67
2022/08/14 03:45:12;;;;;;;;;;;;;;;-144.99;61.02;52036.38;5065810;28;20063;-67
2022/08/14 03:47:40;;;;;;;;;;;;;;;-144.99;61.25;52040.47;5061292;28;19924;-67
2022/08/14 03:50:09;;;;;;;;;;;;;;;-144.99;61.79;52040.47;5060429;28;19932;-66
2022/08/14 03:52:36;;;;;;;;;;;;;;;-144.99;61.88;52032.31;5073021;28;19935;-66
2022/08/14 03:55:05;;;;;;;;;;;;;;;-144.99;61.99;52032.31;5071410;28;19931;-66
2022/08/14 03:57:34;;;;;;;;;;;;;;;-144.99;62.09;52026.19;5070845;28;19924;-70
2022/08/14 04:00:03;;;;;;;;;;;;;;;-144.99;62.24;52046.56;5070040;28;20308;-70
2022/08/14 04:02:30;;;;;;;;;;;;;;;-144.99;62.51;52064.91;5069930;28;20038;-70
2022/08/14 04:04:56;;;;;;;;;;;;;;;-144.99;63.03;52046.56;5064564;28;19931;-70
2022/08/14 04:07:22;;;;;;;;;;;;;;;-144.99;62.83;52064.91;5070929;28;20011;-70
2022/08/14 04:09:49;;;;;;;;;;;;;;;-144.99;62.95;52060.84;5067471;28;19924;-70
2022/08/14 04:12:18;;;;;;;;;;;;;;;-144.99;62.96;52028.22;5073322;28;19924;-69
2022/08/14 04:14:46;;;;;;;;;;;;;;;-144.99;63.15;52052.69;5068672;28;20443;-70
2022/08/14 04:17:13;;;;;;;;;;;;;;;-144.99;63.46;52056.78;5064760;28;19935;-68
2022/08/14 04:19:39;;;;;;;;;;;;;;;-144.99;63.80;52105.69;5069331;28;20048;-68
2022/08/14 04:22:06;;;;;;;;;;;;;;;-144.99;64.10;52046.56;5068682;28;19924;-69
2022/08/14 04:24:33;;;;;;;;;;;;;;;-144.99;64.32;52077.16;5070023;28;20015;-70
2022/08/14 04:26:59;;;;;;;;;;;;;;;-144.99;64.28;52024.16;5066363;28;20011;-69
2022/08/14 04:29:25;;;;;;;;;;;;;;;-144.99;64.64;52046.56;5068501;28;20298;-69
2022/08/14 04:31:53;;;;;;;;;;;;;;;-144.99;65.10;52064.91;5067614;28;20011;-70
2022/08/14 04:34:20;;;;;;;;;;;;;;;-144.99;65.59;52079.19;5069951;28;19992;-70
2022/08/14 04:44:58;;;;;;;;;;;;;;;-144.99;65.78;52073.06;5068263;28;20019;-70
2022/08/14 04:50:10;;;;;;;;;;;;;;;-144.99;65.98;52052.69;5067778;28;19932;-67
2022/08/14 04:52:36;;;;;;;;;;;;;;;-144.99;65.88;52032.31;5063816;28;20701;-67
2022/08/14 04:55:03;;;;;;;;;;;;;;;-144.99;65.77;52044.53;5067357;28;19974;-66
2022/08/14 04:57:30;;;;;;;;;;;;;;;-144.99;65.58;52052.69;5061869;28;19925;-66
2022/08/14 04:59:56;;;;;;;;;;;;;;;-144.99;65.53;52058.81;5067086;28;19925;-67
2022/08/14 05:02:24;;;;;;;;;;;;;;;-144.99;65.37;52016.00;5062926;28;20199;-67
2022/08/14 05:04:51;;;;;;;;;;;;;;;-144.99;65.07;52048.63;5072271;28;20003;-67
2022/08/14 05:07:18;;;;;;;;;;;;;;;-144.99;65.10;52020.09;5066982;28;19971;-68
2022/08/14 05:09:44;;;;;;;;;;;;;;;-144.99;64.96;52040.47;5065780;28;19935;-66
2022/08/14 05:12:11;;;;;;;;;;;;;;;-144.99;64.96;52042.50;5068495;28;20027;-66
2022/08/14 05:14:38;;;;;;;;;;;;;;;-144.99;64.85;52064.91;5070846;28;19931;-68
2022/08/14 05:17:04;;;;;;;;;;;;;;;-144.99;64.75;52036.38;5064527;28;19924;-64
2022/08/14 05:19:31;;;;;;;;;;;;;;;-144.99;65.00;52056.78;5061861;28;19925;-65
2022/08/14 05:22:00;;;;;;;;;;;;;;;-144.99;65.00;52052.69;5065318;28;19933;-66
2022/08/14 05:24:26;;;;;;;;;;;;;;;-144.99;64.86;52032.31;5065292;28;19928;-64
2022/08/14 05:26:53;;;;;;;;;;;;;;;-144.99;64.63;52020.09;5069275;28;20281;-64
2022/08/14 05:29:20;;;;;;;;;;;;;;;-144.99;64.65;52036.38;5065920;23;19928;-74
2022/08/14 05:31:46;;;;;;;;;;;;;;;-144.99;64.24;52011.94;5025918;28;20003;-75
2022/08/14 05:34:12;;;;;;;;;;;;;;;-144.99;64.52;52016.00;5027090;28;19925;-73
2022/08/14 05:36:39;;;;;;;;;;;;;;;-144.99;64.44;52036.38;5028924;28;19932;-73
2022/08/14 05:39:07;;;;;;;;;;;;;;;-144.99;64.54;52044.53;5018351;28;19925;-74
2022/08/14 05:41:33;;;;;;;;;;;;;;;-144.99;64.50;52018.03;5009545;28;19930;-74
2022/08/14 05:44:00;;;;;;;;;;;;;;;-144.99;64.32;52007.84;5001827;28;19925;-75
2022/08/14 05:46:27;;;;;;;;;;;;;;;-144.99;64.26;51999.69;5008830;28;19962;-74
2022/08/14 05:48:55;;;;;;;;;;;;;;;-144.99;64.55;52028.22;5021492;28;19932;-74
2022/08/14 05:51:22;;;;;;;;;;;;;;;-144.99;64.71;52007.84;5026187;28;19933;-75
2022/08/14 05:53:49;;;;;;;;;;;;;;;-144.99;64.84;52038.44;5032645;28;19946;-74
2022/08/14 05:56:17;;;;;;;;;;;;;;;-144.99;64.85;52042.50;5033898;28;19932;-74
2022/08/14 05:58:43;;;;;;;;;;;;;;;-144.99;64.82;52040.47;5031822;28;19930;-74
2022/08/14 06:01:10;;;;;;;;;;;;;;;-144.99;64.58;51991.56;5035139;28;19981;-74
2022/08/14 06:03:36;;;;;;;;;;;;;;;-144.99;64.04;52016.00;5034579;28;19961;-74
2022/08/14 06:06:03;;;;;;;;;;;;;;;-144.99;63.56;52018.03;5038417;28;19973;-75
2022/08/14 06:08:30;;;;;;;;;;;;;;;-144.99;63.26;52016.00;5033112;28;19910;-74
2022/08/14 06:11:01;;;;;;;;;;;;;;;-144.99;62.94;52024.16;5035520;28;19937;-75
2022/08/14 06:13:29;;;;;;;;;;;;;;;-144.99;62.69;51987.47;5032402;28;19914;-74
2022/08/14 06:15:56;;;;;;;;;;;;;;;-144.99;62.08;51969.13;5036241;28;19936;-74
2022/08/14 06:18:22;;;;;;;;;;;;;;;-144.99;61.51;52003.78;5031189;28;19951;-72
2022/08/14 06:20:48;;;;;;;;;;;;;;;-144.99;60.86;51969.13;5034309;28;19944;-73
2022/08/14 06:23:15;;;;;;;;;;;;;;;-144.99;60.80;51971.16;5038793;28;19925;-75
2022/08/14 06:25:43;;;;;;;;;;;;;;;-144.99;60.74;52036.38;5032895;28;19937;-74
2022/08/14 06:28:15;;;;;;;;;;;;;;;-144.99;60.32;52007.84;5032763;28;19913;-74
2022/08/14 06:30:43;;;;;;;;;;;;;;;-144.99;59.95;51985.44;5029844;28;19928;-74
2022/08/14 06:33:09;;;;;;;;;;;;;;;-144.99;59.36;52020.09;5030294;28;19957;-73
2022/08/14 06:35:36;;;;;;;;;;;;;;;-144.99;59.40;51999.69;5028197;28;19930;-74
2022/08/14 06:38:02;;;;;;;;;;;;;;;-144.99;59.01;51985.44;5032876;28;19977;-72
2022/08/14 06:40:31;;;;;;;;;;;;;;;-144.99;58.23;52005.81;5036793;28;19913;-73
2022/08/14 06:42:58;;;;;;;;;;;;;;;-144.99;58.41;52020.09;5031604;28;19922;-71
2022/08/14 06:45:25;;;;;;;;;;;;;;;-144.99;58.53;51995.63;5033955;28;19929;-72
2022/08/14 06:47:53;;;;;;;;;;;;;;;-144.99;57.93;51995.63;5012273;28;19979;-72
2022/08/14 06:50:20;;;;;;;;;;;;;;;-144.99;57.89;51954.88;5013084;28;19933;-74
2022/08/14 06:52:47;;;;;;;;;;;;;;;-144.99;57.64;52016.00;5016561;28;20075;-73
2022/08/14 06:55:16;;;;;;;;;;;;;;;-144.99;57.51;51987.47;5016890;28;19988;-72
2022/08/14 06:57:44;;;;;;;;;;;;;;;-144.99;57.66;51997.66;5012744;28;19932;-74
2022/08/14 07:00:12;;;;;;;;;;;;;;;-144.99;57.84;51997.66;5008557;28;19949;-74
2022/08/14 07:08:11;;;;;;;;;;;;;;;-144.99;57.34;51991.56;5002429;28;19944;-71
2022/08/14 07:10:38;;;;;;;;;;;;;;;-144.99;57.32;51995.63;5008013;28;19932;-70
2022/08/14 07:13:05;;;;;;;;;;;;;;;-144.99;56.45;51967.09;5001799;28;19929;-69
2022/08/14 07:15:31;;;;;;;;;;;;;;;-144.99;57.24;52003.78;5004337;28;19925;-69
2022/08/14 07:17:58;;;;;;;;;;;;;;;-144.99;57.41;51999.69;5006688;28;19929;-71
2022/08/14 07:20:27;;;;;;;;;;;;;;;-144.99;57.86;52020.09;5005899;28;19983;-70
2022/08/14 07:22:57;;;;;;;;;;;;;;;-144.99;57.85;51999.69;5001217;28;20012;-70
2022/08/14 07:25:23;;;;;;;;;;;;;;;-144.99;55.95;51999.69;5004839;28;19948;-70
2022/08/14 07:27:49;;;;;;;;;;;;;;;-144.99;56.88;51987.47;5004683;28;20024;-70
2022/08/14 07:30:16;;;;;;;;;;;;;;;-144.99;56.88;51958.94;4989127;28;19925;-70
2022/08/14 07:32:43;;;;;;;;;;;;;;;-144.99;55.44;51997.66;4985977;28;20025;-71
2022/08/14 07:35:09;;;;;;;;;;;;;;;-144.99;55.09;51942.63;4987086;28;20428;-71
2022/08/14 07:37:37;;;;;;;;;;;;;;;-144.99;55.08;51971.16;4984880;28;20036;-70
2022/08/14 07:40:04;;;;;;;;;;;;;;;-144.99;53.64;51979.31;4985838;28;19934;-71
2022/08/14 07:42:31;;;;;;;;;;;;;;;-144.99;54.01;51950.78;4981986;28;20021;-71
2022/08/14 07:44:58;;;;;;;;;;;;;;;-144.99;53.15;51946.72;4985698;28;20304;-71
2022/08/14 07:47:24;;;;;;;;;;;;;;;-144.99;52.68;51940.59;4985170;28;19932;-70
2022/08/14 07:49:54;;;;;;;;;;;;;;;-144.99;52.76;51954.88;4990575;28;19942;-71
2022/08/14 07:52:21;;;;;;;;;;;;;;;-144.99;52.98;51958.94;4990444;28;19926;-70
2022/08/14 07:54:49;;;;;;;;;;;;;;;-144.99;53.04;51914.09;4990880;28;19952;-71
2022/08/14 07:57:18;;;;;;;;;;;;;;;-144.99;52.86;51930.41;4990089;28;20160;-71
2022/08/14 07:59:44;;;;;;;;;;;;;;;-144.99;51.61;51967.09;4989473;28;20278;-72
2022/08/14 08:02:11;;;;;;;;;;;;;;;-144.99;52.13;51934.50;4990675;28;19926;-72
2022/08/14 08:04:41;;;;;;;;;;;;;;;-144.99;50.98;51946.72;4990765;28;19930;-72
2022/08/14 08:07:07;;;;;;;;;;;;;;;-144.99;49.76;51918.19;4985673;28;19932;-72
2022/08/14 08:09:36;;;;;;;;;;;;;;;-144.99;48.87;51926.34;4976829;28;19934;-71
2022/08/14 08:12:04;;;;;;;;;;;;;;;-144.99;48.55;51910.03;4983438;28;20020;-72
2022/08/14 08:14:32;;;;;;;;;;;;;;;-144.99;47.82;51928.38;4991191;28;19929;-72
2022/08/14 08:16:59;;;;;;;;;;;;;;;-144.99;48.51;51885.56;4989938;28;19933;-72
2022/08/14 08:19:26;;;;;;;;;;;;;;;-144.99;48.13;51958.94;4982647;28;20317;-71
2022/08/14 08:21:53;;;;;;;;;;;;;;;-144.99;49.46;51952.81;4981504;28;19926;-71
2022/08/14 08:24:20;;;;;;;;;;;;;;;-144.99;49.18;51928.38;4981275;28;19926;-72
2022/08/14 08:26:46;;;;;;;;;;;;;;;-144.99;49.54;51922.25;4983195;28;19930;-71
2022/08/14 08:29:19;;;;;;;;;;;;;;;-144.99;49.53;51928.38;4990584;28;20020;-72
2022/08/14 08:31:47;;;;;;;;;;;;;;;-144.99;49.11;51903.91;5002687;28;20016;-71
2022/08/14 08:34:14;;;;;;;;;;;;;;;-144.99;48.64;51918.19;5010132;28;19925;-71
2022/08/14 08:36:41;;;;;;;;;;;;;;;-144.99;48.58;51895.75;5008452;28;19932;-72
2022/08/14 08:39:07;;;;;;;;;;;;;;;-144.99;49.52;51954.88;5009093;28;19933;-71
2022/08/14 08:41:41;;;;;;;;;;;;;;;-144.99;48.92;51910.03;5009823;28;20446;-71
2022/08/14 08:44:07;;;;;;;;;;;;;;;-144.99;48.19;51873.34;5009602;28;19926;-72
2022/08/14 08:46:35;;;;;;;;;;;;;;;-144.99;47.30;51918.19;5009689;28;19943;-72
2022/08/14 08:49:01;;;;;;;;;;;;;;;-144.99;47.51;51899.84;5010649;28;19981;-72
2022/08/14 08:51:29;;;;;;;;;;;;;;;-144.99;47.41;51946.72;5016555;28;20277;-72
2022/08/14 08:53:57;;;;;;;;;;;;;;;-144.99;47.69;51967.09;5017415;28;20190;-72
2022/08/14 08:56:33;;;;;;;;;;;;;;;-144.99;46.79;51914.09;5014513;28;19969;-72
2022/08/14 08:58:59;;;;;;;;;;;;;;;-144.99;46.52;51885.56;5012114;28;19936;-72
2022/08/14 09:01:28;;;;;;;;;;;;;;;-144.99;46.08;51877.44;5012243;28;19929;-72
2022/08/14 09:04:03;;;;;;;;;;;;;;;-144.99;45.98;51932.44;5011478;28;19932;-70
2022/08/14 09:06:29;;;;;;;;;;;;;;;-144.99;45.43;51852.97;5003748;28;20012;-71
2022/08/14 09:08:55;;;;;;;;;;;;;;;-144.99;45.44;51895.75;5012443;28;19983;-72
2022/08/14 09:11:23;;;;;;;;;;;;;;;-144.99;44.85;51873.34;5013944;28;20436;-71
2022/08/14 09:13:50;;;;;;;;;;;;;;;-144.99;45.17;51905.97;5012442;28;19925;-71
2022/08/14 09:16:18;;;;;;;;;;;;;;;-144.99;45.26;51926.34;5012181;28;20389;-70
2022/08/14 09:18:45;;;;;;;;;;;;;;;-144.99;44.86;51926.34;5012353;28;19988;-72
2022/08/14 09:21:13;;;;;;;;;;;;;;;-144.99;44.59;51889.66;5012153;28;19925;-71
2022/08/14 09:23:40;;;;;;;;;;;;;;;-144.99;44.35;51873.34;5013066;28;20020;-72
2022/08/14 09:26:06;;;;;;;;;;;;;;;-144.99;45.12;51897.81;5012359;28;19975;-72
2022/08/14 09:28:33;;;;;;;;;;;;;;;-144.99;44.57;51895.75;5009276;28;19926;-72
2022/08/14 09:31:00;;;;;;;;;;;;;;;-144.99;44.13;51930.41;4991613;28;19961;-72
2022/08/14 09:33:31;;;;;;;;;;;;;;;-144.99;45.20;51910.03;4976127;28;20413;-72
2022/08/14 09:36:03;;;;;;;;;;;;;;;-144.99;44.88;51918.19;4988087;28;20020;-73
2022/08/14 09:38:38;;;;;;;;;;;;;;;-144.99;44.44;51863.16;4981510;28;20317;-72
2022/08/14 09:41:10;;;;;;;;;;;;;;;-144.99;44.63;51885.56;4990669;28;19925;-72
2022/08/14 09:43:43;;;;;;;;;;;;;;;-144.99;44.66;51881.50;4988665;28;19972;-72
2022/08/14 09:46:11;;;;;;;;;;;;;;;-144.99;44.92;51881.50;4984112;28;19935;-71
2022/08/14 09:48:37;;;;;;;;;;;;;;;-144.99;44.47;51865.19;4989990;28;19926;-71
2022/08/14 09:51:06;;;;;;;;;;;;;;;-144.99;44.41;51848.91;4991272;28;20408;-71
2022/08/14 09:53:36;;;;;;;;;;;;;;;-144.99;43.61;51873.34;4981356;28;20024;-71
2022/08/14 09:56:03;;;;;;;;;;;;;;;-144.99;42.95;51834.63;4992194;28;19972;-71
2022/08/14 09:58:36;;;;;;;;;;;;;;;-144.99;42.42;51840.75;4985579;28;19934;-72
2022/08/14 10:01:08;;;;;;;;;;;;;;;-144.99;42.97;51914.09;4987001;28;19933;-72
2022/08/14 10:03:35;;;;;;;;;;;;;;;-144.99;42.03;51836.66;4989136;28;20464;-71
2022/08/14 10:06:10;;;;;;;;;;;;;;;-144.99;41.21;51816.28;4988285;28;19968;-71
2022/08/14 10:08:42;;;;;;;;;;;;;;;-144.99;41.29;51820.38;4986061;28;19929;-71
2022/08/14 10:11:18;;;;;;;;;;;;;;;-144.99;40.93;51828.50;4991210;28;20060;-72
2022/08/14 10:13:45;;;;;;;;;;;;;;;-144.99;40.47;51861.13;4992027;28;20432;-71
2022/08/14 10:16:13;;;;;;;;;;;;;;;-144.99;40.22;51840.75;4987043;28;19961;-72
2022/08/14 10:18:39;;;;;;;;;;;;;;;-144.99;40.61;51836.66;4987684;28;19926;-71
2022/08/14 10:21:08;;;;;;;;;;;;;;;-144.99;41.12;51857.03;4988011;28;19930;-71
2022/08/14 10:23:42;;;;;;;;;;;;;;;-144.99;40.32;51834.63;4991503;28;20020;-73
2022/08/14 10:26:09;;;;;;;;;;;;;;;-144.99;40.61;51804.06;4991861;28;19973;-73
2022/08/14 10:28:41;;;;;;;;;;;;;;;-144.99;39.95;51791.84;4995038;28;19948;-73
2022/08/14 10:31:15;;;;;;;;;;;;;;;-144.99;39.67;51806.09;5011535;28;19930;-72
2022/08/14 10:33:42;;;;;;;;;;;;;;;-144.99;39.26;51783.69;5013298;28;19925;-72
2022/08/14 10:36:09;;;;;;;;;;;;;;;-144.99;38.20;51791.84;5012950;28;19925;-72
2022/08/14 10:38:36;;;;;;;;;;;;;;;-144.99;38.58;51783.69;5012720;28;19929;-72
2022/08/14 10:41:12;;;;;;;;;;;;;;;-144.99;38.17;51742.91;5013683;28;19992;-74
2022/08/14 10:43:38;;;;;;;;;;;;;;;-144.99;38.05;51747.00;5010023;28;20424;-73
2022/08/14 10:46:12;;;;;;;;;;;;;;;-144.99;38.09;51734.78;5014703;28;19925;-73
2022/08/14 10:48:38;;;;;;;;;;;;;;;-144.99;37.60;51687.91;5013341;28;19932;-75
2022/08/14 10:51:05;;;;;;;;;;;;;;;-144.99;37.18;51691.97;5019791;28;19926;-74
2022/08/14 10:53:35;;;;;;;;;;;;;;;-144.99;36.44;51681.78;5019156;28;19988;-72
2022/08/14 10:56:05;;;;;;;;;;;;;;;-144.99;35.73;51645.09;5006712;28;19952;-71
2022/08/14 10:58:34;;;;;;;;;;;;;;;-144.99;35.94;51689.94;5009065;28;19973;-73
2022/08/14 11:01:06;;;;;;;;;;;;;;;-144.99;36.12;51657.34;5010416;28;19925;-72
2022/08/14 11:03:39;;;;;;;;;;;;;;;-144.99;36.28;51726.63;5004245;28;19980;-73
2022/08/14 11:06:23;;;;;;;;;;;;;;;-144.99;36.05;51718.47;5010554;28;19933;-73
2022/08/14 11:08:50;;;;;;;;;;;;;;;-144.99;36.55;51691.97;5010954;28;19925;-73
2022/08/14 11:11:17;;;;;;;;;;;;;;;-144.99;36.00;51694.00;5011377;28;20356;-72
2022/08/14 11:13:46;;;;;;;;;;;;;;;-144.99;35.67;51730.69;5011156;28;19930;-74
2022/08/14 11:16:13;;;;;;;;;;;;;;;-144.99;35.38;51661.41;5011096;28;19956;-72
2022/08/14 11:18:43;;;;;;;;;;;;;;;-144.99;36.39;51655.28;5004386;28;19940;-73
2022/08/14 11:21:14;;;;;;;;;;;;;;;-144.99;36.99;51726.63;5008262;28;20520;-73
2022/08/14 11:23:40;;;;;;;;;;;;;;;-144.99;36.83;51742.91;5010484;28;19926;-72
2022/08/14 11:26:08;;;;;;;;;;;;;;;-144.99;36.41;51683.81;5010676;28;20012;-73
2022/08/14 11:28:40;;;;;;;;;;;;;;;-144.99;35.63;51685.88;5011066;28;19935;-71
2022/08/14 11:31:11;;;;;;;;;;;;;;;-144.99;36.32;51669.56;5013341;23;19926;-82
2022/08/14 11:33:39;;;;;;;;;;;;;;;-144.99;36.13;51677.72;4991684;28;20389;-79
2022/08/14 11:36:08;;;;;;;;;;;;;;;-144.99;37.25;51732.72;4990326;28;19926;-81
2022/08/14 11:38:39;;;;;;;;;;;;;;;-144.99;36.68;51795.91;4991908;28;19972;-81
2022/08/14 11:41:06;;;;;;;;;;;;;;;-144.99;37.43;51771.44;4989538;28;19937;-82
2022/08/14 11:43:39;;;;;;;;;;;;;;;-144.99;38.09;51844.81;4996133;28;19930;-81
2022/08/14 11:46:05;;;;;;;;;;;;;;;-144.99;38.86;51861.13;4989608;28;20327;-82
2022/08/14 11:48:44;;;;;;;;;;;;;;;-144.99;38.51;51844.81;4996623;28;20028;-83
2022/08/14 11:51:12;;;;;;;;;;;;;;;-144.99;38.79;51857.03;4995016;28;20313;-80
2022/08/14 11:53:42;;;;;;;;;;;;;;;-144.99;39.38;51879.47;4997880;28;19930;-79
2022/08/14 11:56:09;;;;;;;;;;;;;;;-144.99;39.28;51897.81;4995260;28;19929;-79
2022/08/14 11:58:36;;;;;;;;;;;;;;;-144.99;39.19;51893.72;4998099;28;19933;-83
2022/08/14 12:01:05;;;;;;;;;;;;;;;-144.99;39.33;51918.19;4997439;28;19940;-81
2022/08/14 12:03:37;;;;;;;;;;;;;;;-144.99;39.43;51916.16;5006283;28;19914;-85
2022/08/14 12:06:04;;;;;;;;;;;;;;;-144.99;39.94;51885.56;5005861;28;19932;-82
2022/08/14 12:08:34;;;;;;;;;;;;;;;-144.99;41.18;51903.91;4999294;28;19940;-82
2022/08/14 12:11:00;;;;;;;;;;;;;;;-144.99;40.49;51869.28;4996372;28;19929;-82
2022/08/14 12:13:31;;;;;;;;;;;;;;;-144.99;40.46;51869.28;4981618;28;20345;-82
2022/08/14 12:15:59;;;;;;;;;;;;;;;-144.99;40.00;51852.97;4989638;28;19937;-82
2022/08/14 12:18:31;;;;;;;;;;;;;;;-144.99;40.21;51918.19;4997502;28;19926;-83
2022/08/14 12:20:59;;;;;;;;;;;;;;;-144.99;39.96;51889.66;4992651;28;19933;-83
2022/08/14 12:23:26;;;;;;;;;;;;;;;-144.99;40.96;51895.75;4994869;28;20356;-83
2022/08/14 12:26:02;;;;;;;;;;;;;;;-144.99;41.00;51865.19;4996879;28;19957;-81
2022/08/14 12:28:28;;;;;;;;;;;;;;;-144.99;41.05;51873.34;4989572;28;20072;-81
2022/08/14 12:30:55;;;;;;;;;;;;;;;-144.99;40.41;51873.34;5004976;28;19926;-84
2022/08/14 12:33:24;;;;;;;;;;;;;;;-144.99;40.02;51861.13;5006098;28;19949;-84
2022/08/14 12:35:51;;;;;;;;;;;;;;;-144.99;40.30;51863.16;5020666;28;19963;-81
2022/08/14 12:38:20;;;;;;;;;;;;;;;-144.99;40.31;51857.03;5024154;28;19994;-84
2022/08/14 12:40:49;;;;;;;;;;;;;;;-144.99;40.48;51850.94;5034640;28;19925;-85
2022/08/14 12:43:18;;;;;;;;;;;;;;;-144.99;39.79;51873.34;5017438;28;19929;-82
2022/08/14 12:45:49;;;;;;;;;;;;;;;-144.99;39.94;51873.34;5016952;28;19929;-78
2022/08/14 12:48:16;;;;;;;;;;;;;;;-144.99;38.95;51828.50;5022318;28;19929;-82
2022/08/14 12:50:43;;;;;;;;;;;;;;;-144.99;38.64;51824.44;5023509;28;19932;-83